createdAt,value
2019-05-20T00:00:08.462Z,17.54
2019-05-20T00:01:08.452Z,17.44
2019-05-20T00:02:22.908Z,17.49
2019-05-20T00:03:09.467Z,17.43
2019-05-20T00:04:08.426Z,17.51
2019-05-20T00:05:13.432Z,17.48
2019-05-20T00:06:08.454Z,17.49
2019-05-20T00:07:08.395Z,17.51
2019-05-20T00:08:08.377Z,17.44
2019-05-20T00:09:08.362Z,17.38
2019-05-20T00:10:08.363Z,17.30
2019-05-20T00:11:08.348Z,17.37
2019-05-20T00:12:08.339Z,17.41
2019-05-20T00:13:08.324Z,17.41
2019-05-20T00:14:08.307Z,17.37
2019-05-20T00:15:08.301Z,17.43
2019-05-20T00:16:13.314Z,17.33
2019-05-20T00:17:08.282Z,17.33
2019-05-20T00:18:08.264Z,17.34
2019-05-20T00:19:08.251Z,17.40
2019-05-20T00:20:08.245Z,17.36
2019-05-20T00:21:08.231Z,17.34
2019-05-20T00:22:08.329Z,17.30
2019-05-20T00:23:08.220Z,17.33
2019-05-20T00:24:08.198Z,17.30
2019-05-20T00:25:08.193Z,17.34
2019-05-20T00:26:08.175Z,17.33
2019-05-20T00:27:13.193Z,17.28
2019-05-20T00:28:08.152Z,17.34
2019-05-20T00:29:08.144Z,17.28
2019-05-20T00:30:08.130Z,17.30
2019-05-20T00:31:08.118Z,17.31
2019-05-20T00:32:08.121Z,17.26
2019-05-20T00:33:08.132Z,17.30
2019-05-20T00:34:08.132Z,17.26
2019-05-20T00:35:08.094Z,17.19
2019-05-20T00:36:08.062Z,17.21
2019-05-20T00:37:08.096Z,17.22
2019-05-20T00:38:13.060Z,17.22
2019-05-20T00:39:08.047Z,17.16
2019-05-20T00:40:08.019Z,17.30
2019-05-20T00:41:08.008Z,17.25
2019-05-20T00:42:08.014Z,17.22
2019-05-20T00:43:08.077Z,17.21
2019-05-20T00:44:08.026Z,17.11
2019-05-20T00:45:07.965Z,17.08
2019-05-20T00:46:07.951Z,17.06
2019-05-20T00:47:07.940Z,17.08
2019-05-20T00:48:07.936Z,17.06
2019-05-20T00:49:12.938Z,17.11
2019-05-20T00:50:07.913Z,17.00
2019-05-20T00:51:07.895Z,17.00
2019-05-20T00:52:07.886Z,17.12
2019-05-20T00:53:07.885Z,17.07
2019-05-20T00:54:07.861Z,17.06
2019-05-20T00:55:07.855Z,16.98
2019-05-20T00:56:07.839Z,16.93
2019-05-20T00:57:07.828Z,16.98
2019-05-20T00:58:07.835Z,16.94
2019-05-20T00:59:07.806Z,16.89
2019-05-20T01:00:12.873Z,16.86
2019-05-20T01:01:07.786Z,16.88
2019-05-20T01:02:07.776Z,16.86
2019-05-20T01:03:07.800Z,16.82
2019-05-20T01:04:07.795Z,16.85
2019-05-20T01:05:07.761Z,16.76
2019-05-20T01:06:07.732Z,16.85
2019-05-20T01:07:07.719Z,16.76
2019-05-20T01:08:07.715Z,16.81
2019-05-20T01:09:07.719Z,16.82
2019-05-20T01:10:07.683Z,16.81
2019-05-20T01:11:12.809Z,16.76
2019-05-20T01:12:07.670Z,16.76
2019-05-20T01:13:07.689Z,16.79
2019-05-20T01:14:07.663Z,16.75
2019-05-20T01:15:07.628Z,16.73
2019-05-20T01:16:07.618Z,16.68
2019-05-20T01:17:07.724Z,16.75
2019-05-20T01:18:07.609Z,16.75
2019-05-20T01:19:07.649Z,16.71
2019-05-20T01:20:07.571Z,16.89
2019-05-20T01:21:07.561Z,16.75
2019-05-20T01:22:12.574Z,16.75
2019-05-20T01:23:07.555Z,16.76
2019-05-20T01:24:07.528Z,16.68
2019-05-20T01:25:07.515Z,16.66
2019-05-20T01:26:07.508Z,16.67
2019-05-20T01:27:07.494Z,16.58
2019-05-20T01:28:07.504Z,16.58
2019-05-20T01:29:07.474Z,16.61
2019-05-20T01:30:07.459Z,16.53
2019-05-20T01:31:07.457Z,16.58
2019-05-20T01:32:07.438Z,16.48
2019-05-20T01:33:14.213Z,16.52
2019-05-20T01:34:07.422Z,16.53
2019-05-20T01:35:07.404Z,16.52
2019-05-20T01:36:07.394Z,16.57
2019-05-20T01:37:07.383Z,16.64
2019-05-20T01:38:07.375Z,16.53
2019-05-20T01:39:07.369Z,16.46
2019-05-20T01:40:07.349Z,16.53
2019-05-20T01:41:07.339Z,16.57
2019-05-20T01:42:07.331Z,16.49
2019-05-20T01:43:07.334Z,16.53
2019-05-20T01:44:12.336Z,16.46
2019-05-20T01:45:07.292Z,16.43
2019-05-20T01:46:07.416Z,16.46
2019-05-20T01:47:07.303Z,16.45
2019-05-20T01:48:07.258Z,16.50
2019-05-20T01:49:07.255Z,16.45
2019-05-20T01:50:07.240Z,16.45
2019-05-20T01:51:07.232Z,16.48
2019-05-20T01:52:07.218Z,16.45
2019-05-20T01:53:07.235Z,16.53
2019-05-20T01:54:07.225Z,16.33
2019-05-20T01:55:12.202Z,16.41
2019-05-20T01:56:07.314Z,16.34
2019-05-20T01:57:07.172Z,16.39
2019-05-20T01:58:07.187Z,16.38
2019-05-20T01:59:07.233Z,16.35
2019-05-20T02:00:07.125Z,16.34
2019-05-20T02:01:07.118Z,16.39
2019-05-20T02:02:07.103Z,16.34
2019-05-20T02:03:07.164Z,16.34
2019-05-20T02:04:07.146Z,16.31
2019-05-20T02:05:07.087Z,16.34
2019-05-20T02:06:12.082Z,16.42
2019-05-20T02:07:07.051Z,16.30
2019-05-20T02:08:07.035Z,16.39
2019-05-20T02:09:07.050Z,16.27
2019-05-20T02:10:07.013Z,16.43
2019-05-20T02:11:07.111Z,16.24
2019-05-20T02:12:07.019Z,16.25
2019-05-20T02:13:06.981Z,16.27
2019-05-20T02:14:06.972Z,16.31
2019-05-20T02:15:06.970Z,16.33
2019-05-20T02:16:06.947Z,16.34
2019-05-20T02:17:11.957Z,16.27
2019-05-20T02:18:06.927Z,16.31
2019-05-20T02:19:06.915Z,16.25
2019-05-20T02:20:07.027Z,16.27
2019-05-20T02:21:06.929Z,16.34
2019-05-20T02:22:06.899Z,16.25
2019-05-20T02:23:06.943Z,16.34
2019-05-20T02:24:06.899Z,16.33
2019-05-20T02:25:06.866Z,16.23
2019-05-20T02:26:06.847Z,16.24
2019-05-20T02:27:06.821Z,16.27
2019-05-20T02:28:11.833Z,16.27
2019-05-20T02:29:06.821Z,16.25
2019-05-20T02:30:06.802Z,16.27
2019-05-20T02:31:06.778Z,16.24
2019-05-20T02:32:06.767Z,16.30
2019-05-20T02:33:06.754Z,16.33
2019-05-20T02:34:06.873Z,16.28
2019-05-20T02:35:06.758Z,16.34
2019-05-20T02:36:06.725Z,16.30
2019-05-20T02:37:06.711Z,16.27
2019-05-20T02:38:06.698Z,16.23
2019-05-20T02:39:11.905Z,16.23
2019-05-20T02:40:06.689Z,16.15
2019-05-20T02:41:06.693Z,16.23
2019-05-20T02:42:06.693Z,16.23
2019-05-20T02:43:06.647Z,16.15
2019-05-20T02:44:06.632Z,16.14
2019-05-20T02:45:06.636Z,16.11
2019-05-20T02:46:06.623Z,16.17
2019-05-20T02:47:06.598Z,16.11
2019-05-20T02:48:06.587Z,16.17
2019-05-20T02:49:06.576Z,16.14
2019-05-20T02:50:11.616Z,16.11
2019-05-20T02:51:06.555Z,16.08
2019-05-20T02:52:06.544Z,16.11
2019-05-20T02:53:06.550Z,16.20
2019-05-20T02:54:06.526Z,16.20
2019-05-20T02:55:06.525Z,16.14
2019-05-20T02:56:06.497Z,16.11
2019-05-20T02:57:06.489Z,16.12
2019-05-20T02:58:06.481Z,16.20
2019-05-20T02:59:06.524Z,16.12
2019-05-20T03:00:06.513Z,16.14
2019-05-20T03:01:11.468Z,16.11
2019-05-20T03:02:06.481Z,16.17
2019-05-20T03:03:06.437Z,16.14
2019-05-20T03:04:12.301Z,16.15
2019-05-20T03:05:07.874Z,16.17
2019-05-20T03:06:06.391Z,16.12
2019-05-20T03:07:06.379Z,16.17
2019-05-20T03:08:06.380Z,16.14
2019-05-20T03:09:06.357Z,16.08
2019-05-20T03:10:06.365Z,16.05
2019-05-20T03:11:06.331Z,16.08
2019-05-20T03:12:11.343Z,16.07
2019-05-20T03:13:06.313Z,16.05
2019-05-20T03:14:06.297Z,16.04
2019-05-20T03:15:06.387Z,16.05
2019-05-20T03:16:06.319Z,16.01
2019-05-20T03:17:06.331Z,16.02
2019-05-20T03:18:06.294Z,16.00
2019-05-20T03:19:06.245Z,16.02
2019-05-20T03:20:06.246Z,15.96
2019-05-20T03:21:06.232Z,15.94
2019-05-20T03:22:06.218Z,15.94
2019-05-20T03:23:11.227Z,15.96
2019-05-20T03:24:06.202Z,15.92
2019-05-20T03:25:06.177Z,15.84
2019-05-20T03:26:06.190Z,15.86
2019-05-20T03:27:06.159Z,15.86
2019-05-20T03:28:06.210Z,15.87
2019-05-20T03:29:06.162Z,15.86
2019-05-20T03:30:06.229Z,15.76
2019-05-20T03:31:06.154Z,15.67
2019-05-20T03:32:06.112Z,15.78
2019-05-20T03:33:06.090Z,15.80
2019-05-20T03:34:38.644Z,15.74
2019-05-20T03:35:07.072Z,15.72
2019-05-20T03:36:06.066Z,15.74
2019-05-20T03:37:06.051Z,15.67
2019-05-20T03:38:06.039Z,15.69
2019-05-20T03:39:06.019Z,15.64
2019-05-20T03:40:06.121Z,15.62
2019-05-20T03:41:06.009Z,15.64
2019-05-20T03:42:05.986Z,15.62
2019-05-20T03:43:05.976Z,15.69
2019-05-20T03:44:05.965Z,15.67
2019-05-20T03:45:10.985Z,15.72
2019-05-20T03:46:05.962Z,15.69
2019-05-20T03:47:05.983Z,15.71
2019-05-20T03:48:05.940Z,15.75
2019-05-20T03:49:05.908Z,15.71
2019-05-20T03:50:05.902Z,15.75
2019-05-20T03:51:05.903Z,15.64
2019-05-20T03:52:05.887Z,15.64
2019-05-20T03:53:05.886Z,15.60
2019-05-20T03:54:05.862Z,15.65
2019-05-20T03:55:05.852Z,15.59
2019-05-20T03:56:10.924Z,15.60
2019-05-20T03:57:05.909Z,15.64
2019-05-20T03:58:05.808Z,15.64
2019-05-20T03:59:05.798Z,15.60
2019-05-20T04:00:05.794Z,15.62
2019-05-20T04:01:05.778Z,15.57
2019-05-20T04:02:05.777Z,15.65
2019-05-20T04:03:05.816Z,15.60
2019-05-20T04:04:05.775Z,15.60
2019-05-20T04:05:05.746Z,15.59
2019-05-20T04:06:05.718Z,15.60
2019-05-20T04:07:10.747Z,15.68
2019-05-20T04:08:05.700Z,15.65
2019-05-20T04:09:05.787Z,15.62
2019-05-20T04:10:05.715Z,15.59
2019-05-20T04:11:05.682Z,15.64
2019-05-20T04:12:05.740Z,15.51
2019-05-20T04:13:05.664Z,15.67
2019-05-20T04:14:05.642Z,15.57
2019-05-20T04:15:05.626Z,15.53
2019-05-20T04:16:05.609Z,15.62
2019-05-20T04:17:05.611Z,15.50
2019-05-20T04:18:10.609Z,15.53
2019-05-20T04:19:05.579Z,15.44
2019-05-20T04:20:05.569Z,15.51
2019-05-20T04:21:05.555Z,15.51
2019-05-20T04:22:05.556Z,15.49
2019-05-20T04:23:05.534Z,15.47
2019-05-20T04:24:06.030Z,15.51
2019-05-20T04:25:05.526Z,15.51
2019-05-20T04:26:05.535Z,15.47
2019-05-20T04:27:05.515Z,15.47
2019-05-20T04:28:05.497Z,15.49
2019-05-20T04:29:10.505Z,15.46
2019-05-20T04:30:05.458Z,15.50
2019-05-20T04:31:05.481Z,15.49
2019-05-20T04:32:05.455Z,15.49
2019-05-20T04:33:05.422Z,15.50
2019-05-20T04:34:05.490Z,15.49
2019-05-20T04:35:20.721Z,15.50
2019-05-20T04:36:06.386Z,15.51
2019-05-20T04:37:05.383Z,15.53
2019-05-20T04:38:05.388Z,15.46
2019-05-20T04:39:05.358Z,15.53
2019-05-20T04:40:10.368Z,15.51
2019-05-20T04:41:05.333Z,15.54
2019-05-20T04:42:06.677Z,15.49
2019-05-20T04:43:05.321Z,15.56
2019-05-20T04:44:05.306Z,15.57
2019-05-20T04:45:05.292Z,15.57
2019-05-20T04:46:05.278Z,15.44
2019-05-20T04:47:05.268Z,15.50
2019-05-20T04:48:05.266Z,15.47
2019-05-20T04:49:05.252Z,15.60
2019-05-20T04:50:05.232Z,15.50
2019-05-20T04:51:10.311Z,15.57
2019-05-20T04:52:05.208Z,15.67
2019-05-20T04:53:05.211Z,15.60
2019-05-20T04:54:05.195Z,15.53
2019-05-20T04:55:05.186Z,15.51
2019-05-20T04:56:05.169Z,15.53
2019-05-20T04:57:05.155Z,15.50
2019-05-20T04:58:05.155Z,15.64
2019-05-20T04:59:05.139Z,15.64
2019-05-20T05:00:05.123Z,15.59
2019-05-20T05:01:05.208Z,15.54
2019-05-20T05:02:10.119Z,15.54
2019-05-20T05:03:05.100Z,15.56
2019-05-20T05:04:05.081Z,15.54
2019-05-20T05:05:05.079Z,15.59
2019-05-20T05:06:05.119Z,15.62
2019-05-20T05:07:05.061Z,15.65
2019-05-20T05:08:05.086Z,15.59
2019-05-20T05:09:05.025Z,15.62
2019-05-20T05:10:05.015Z,15.64
2019-05-20T05:11:05.034Z,15.65
2019-05-20T05:12:04.986Z,15.67
2019-05-20T05:13:10.047Z,15.59
2019-05-20T05:14:04.974Z,15.62
2019-05-20T05:15:07.911Z,15.62
2019-05-20T05:16:04.942Z,15.64
2019-05-20T05:17:04.942Z,15.69
2019-05-20T05:18:04.938Z,15.57
2019-05-20T05:19:04.971Z,15.57
2019-05-20T05:20:05.008Z,15.67
2019-05-20T05:21:04.911Z,15.62
2019-05-20T05:22:04.881Z,15.57
2019-05-20T05:23:04.867Z,15.59
2019-05-20T05:24:09.929Z,15.60
2019-05-20T05:25:04.847Z,15.65
2019-05-20T05:26:04.832Z,15.60
2019-05-20T05:27:04.846Z,15.59
2019-05-20T05:28:04.870Z,15.65
2019-05-20T05:29:04.823Z,15.49
2019-05-20T05:30:04.836Z,15.56
2019-05-20T05:31:04.781Z,15.47
2019-05-20T05:32:04.773Z,15.54
2019-05-20T05:33:04.755Z,15.64
2019-05-20T05:34:04.771Z,15.50
2019-05-20T05:35:09.754Z,15.57
2019-05-20T05:36:04.722Z,15.65
2019-05-20T05:37:04.754Z,15.72
2019-05-20T05:38:04.820Z,15.72
2019-05-20T05:39:04.699Z,15.75
2019-05-20T05:40:08.089Z,15.74
2019-05-20T05:41:04.676Z,15.72
2019-05-20T05:42:04.675Z,15.83
2019-05-20T05:43:04.747Z,15.84
2019-05-20T05:44:04.640Z,15.86
2019-05-20T05:45:04.620Z,15.87
2019-05-20T05:46:09.720Z,15.83
2019-05-20T05:47:04.614Z,15.80
2019-05-20T05:48:04.677Z,15.92
2019-05-20T05:49:04.625Z,15.84
2019-05-20T05:50:04.568Z,15.90
2019-05-20T05:51:04.576Z,15.90
2019-05-20T05:52:04.550Z,15.83
2019-05-20T05:53:04.591Z,15.87
2019-05-20T05:54:04.543Z,15.75
2019-05-20T05:55:04.510Z,15.87
2019-05-20T05:56:04.500Z,15.90
2019-05-20T05:57:09.510Z,15.94
2019-05-20T05:58:07.923Z,15.92
2019-05-20T05:59:04.481Z,15.87
2019-05-20T06:00:04.487Z,15.86
2019-05-20T06:01:04.442Z,15.89
2019-05-20T06:02:04.434Z,15.89
2019-05-20T06:03:04.424Z,15.86
2019-05-20T06:04:04.423Z,15.83
2019-05-20T06:05:04.395Z,15.87
2019-05-20T06:06:12.093Z,15.78
2019-05-20T06:07:05.394Z,15.86
2019-05-20T06:08:09.396Z,15.87
2019-05-20T06:09:04.410Z,15.78
2019-05-20T06:10:04.438Z,15.80
2019-05-20T06:11:04.360Z,15.71
2019-05-20T06:12:04.337Z,15.72
2019-05-20T06:13:04.427Z,15.68
2019-05-20T06:14:04.312Z,15.78
2019-05-20T06:15:04.286Z,15.69
2019-05-20T06:16:04.285Z,15.76
2019-05-20T06:17:04.263Z,15.74
2019-05-20T06:18:04.251Z,15.75
2019-05-20T06:19:09.276Z,15.78
2019-05-20T06:20:04.248Z,15.74
2019-05-20T06:21:04.226Z,15.76
2019-05-20T06:22:04.243Z,15.84
2019-05-20T06:23:04.221Z,15.83
2019-05-20T06:24:04.224Z,15.97
2019-05-20T06:25:04.228Z,15.96
2019-05-20T06:26:04.196Z,15.96
2019-05-20T06:27:04.180Z,16.04
2019-05-20T06:28:04.142Z,16.05
2019-05-20T06:29:04.129Z,16.07
2019-05-20T06:30:09.242Z,16.15
2019-05-20T06:31:04.110Z,16.04
2019-05-20T06:32:04.150Z,16.05
2019-05-20T06:33:04.150Z,16.07
2019-05-20T06:34:04.074Z,16.09
2019-05-20T06:35:04.136Z,16.14
2019-05-20T06:36:04.071Z,16.14
2019-05-20T06:37:04.050Z,16.23
2019-05-20T06:38:04.032Z,16.25
2019-05-20T06:39:04.023Z,16.30
2019-05-20T06:40:04.077Z,16.31
2019-05-20T06:41:09.062Z,16.41
2019-05-20T06:42:04.005Z,16.31
2019-05-20T06:43:04.002Z,16.39
2019-05-20T06:44:03.968Z,16.39
2019-05-20T06:45:03.962Z,16.46
2019-05-20T06:46:03.951Z,16.45
2019-05-20T06:47:04.015Z,16.56
2019-05-20T06:48:03.920Z,16.52
2019-05-20T06:49:03.953Z,16.64
2019-05-20T06:50:03.908Z,16.57
2019-05-20T06:51:03.891Z,16.64
2019-05-20T06:52:08.897Z,16.68
2019-05-20T06:53:03.917Z,16.70
2019-05-20T06:54:03.852Z,16.81
2019-05-20T06:55:03.851Z,16.85
2019-05-20T06:56:03.830Z,16.82
2019-05-20T06:57:03.830Z,16.82
2019-05-20T06:58:03.813Z,16.91
2019-05-20T06:59:03.812Z,16.89
2019-05-20T07:00:03.801Z,16.91
2019-05-20T07:01:03.773Z,16.88
2019-05-20T07:02:03.795Z,16.91
2019-05-20T07:03:08.811Z,16.96
2019-05-20T07:04:03.747Z,16.88
2019-05-20T07:05:03.739Z,16.96
2019-05-20T07:06:03.809Z,16.86
2019-05-20T07:07:12.434Z,17.03
2019-05-20T07:08:04.723Z,17.04
2019-05-20T07:09:03.708Z,17.07
2019-05-20T07:10:03.683Z,16.97
2019-05-20T07:11:03.660Z,17.07
2019-05-20T07:12:03.668Z,16.93
2019-05-20T07:13:03.684Z,16.98
2019-05-20T07:14:08.697Z,16.97
2019-05-20T07:15:03.635Z,16.98
2019-05-20T07:16:03.609Z,17.06
2019-05-20T07:17:03.597Z,17.06
2019-05-20T07:18:03.584Z,17.14
2019-05-20T07:19:03.673Z,17.07
2019-05-20T07:20:03.605Z,17.25
2019-05-20T07:21:03.563Z,17.18
2019-05-20T07:22:03.600Z,17.12
2019-05-20T07:23:03.535Z,17.19
2019-05-20T07:24:03.558Z,17.25
2019-05-20T07:25:08.543Z,17.21
2019-05-20T07:26:03.507Z,17.31
2019-05-20T07:27:03.496Z,17.36
2019-05-20T07:28:03.501Z,17.31
2019-05-20T07:29:03.486Z,17.38
2019-05-20T07:30:03.463Z,17.34
2019-05-20T07:31:03.478Z,17.49
2019-05-20T07:32:03.454Z,17.41
2019-05-20T07:33:03.449Z,17.48
2019-05-20T07:34:03.435Z,17.62
2019-05-20T07:35:03.478Z,17.56
2019-05-20T07:36:10.104Z,17.58
2019-05-20T07:37:04.191Z,17.64
2019-05-20T07:38:03.386Z,17.74
2019-05-20T07:39:03.360Z,17.71
2019-05-20T07:40:03.501Z,17.72
2019-05-20T07:41:03.372Z,17.84
2019-05-20T07:42:03.384Z,17.78
2019-05-20T07:43:03.318Z,17.86
2019-05-20T07:44:03.685Z,17.86
2019-05-20T07:45:03.302Z,17.87
2019-05-20T07:46:03.314Z,17.92
2019-05-20T07:47:10.926Z,17.97
2019-05-20T07:48:03.259Z,17.96
2019-05-20T07:49:03.398Z,17.93
2019-05-20T07:50:03.229Z,17.89
2019-05-20T07:51:03.244Z,18.00
2019-05-20T07:52:03.225Z,17.99
2019-05-20T07:53:03.197Z,18.02
2019-05-20T07:54:03.274Z,18.11
2019-05-20T07:55:03.197Z,18.14
2019-05-20T07:56:03.249Z,18.14
2019-05-20T07:57:03.157Z,18.05
2019-05-20T07:58:08.164Z,18.00
2019-05-20T07:59:03.142Z,18.10
2019-05-20T08:00:03.193Z,18.00
2019-05-20T08:01:03.163Z,18.05
2019-05-20T08:02:03.147Z,17.99
2019-05-20T08:03:03.092Z,17.93
2019-05-20T08:04:03.091Z,17.93
2019-05-20T08:05:03.516Z,17.95
2019-05-20T08:06:03.064Z,17.93
2019-05-20T08:07:26.180Z,17.96
2019-05-20T08:08:04.041Z,18.03
2019-05-20T08:09:08.051Z,18.05
2019-05-20T08:10:03.021Z,17.99
2019-05-20T08:11:03.018Z,17.93
2019-05-20T08:12:03.024Z,17.92
2019-05-20T08:13:03.004Z,17.92
2019-05-20T08:14:02.966Z,17.86
2019-05-20T08:15:02.956Z,17.92
2019-05-20T08:16:02.965Z,18.02
2019-05-20T08:17:02.996Z,17.99
2019-05-20T08:18:02.969Z,18.05
2019-05-20T08:19:02.913Z,18.05
2019-05-20T08:20:07.921Z,18.08
2019-05-20T08:21:02.902Z,18.11
2019-05-20T08:22:02.894Z,18.17
2019-05-20T08:23:02.869Z,18.10
2019-05-20T08:24:02.856Z,18.21
2019-05-20T08:25:02.848Z,18.18
2019-05-20T08:26:02.836Z,18.20
2019-05-20T08:27:02.834Z,18.27
2019-05-20T08:28:02.816Z,18.25
2019-05-20T08:29:02.801Z,18.29
2019-05-20T08:30:02.858Z,18.30
2019-05-20T08:31:07.846Z,18.27
2019-05-20T08:32:02.825Z,18.27
2019-05-20T08:33:02.763Z,18.30
2019-05-20T08:34:02.788Z,18.27
2019-05-20T08:35:02.750Z,18.27
2019-05-20T08:36:02.726Z,18.32
2019-05-20T08:37:02.734Z,18.36
2019-05-20T08:38:02.703Z,18.33
2019-05-20T08:39:02.724Z,18.39
2019-05-20T08:40:02.749Z,18.47
2019-05-20T08:41:02.668Z,18.30
2019-05-20T08:42:07.688Z,18.44
2019-05-20T08:43:02.674Z,18.44
2019-05-20T08:44:02.630Z,18.37
2019-05-20T08:45:03.439Z,18.47
2019-05-20T08:46:02.609Z,18.52
2019-05-20T08:47:02.648Z,18.67
2019-05-20T08:48:02.639Z,18.66
2019-05-20T08:49:02.588Z,18.69
2019-05-20T08:50:04.907Z,18.88
2019-05-20T08:51:02.566Z,18.90
2019-05-20T08:52:02.552Z,18.95
2019-05-20T08:53:07.557Z,19.00
2019-05-20T08:54:02.517Z,19.10
2019-05-20T08:55:02.706Z,19.06
2019-05-20T08:56:02.500Z,19.23
2019-05-20T08:57:02.503Z,19.21
2019-05-20T08:58:02.553Z,19.36
2019-05-20T08:59:02.498Z,19.37
2019-05-20T09:00:03.147Z,19.41
2019-05-20T09:01:02.462Z,19.33
2019-05-20T09:02:02.463Z,19.41
2019-05-20T09:03:02.421Z,19.29
2019-05-20T09:04:07.436Z,19.41
2019-05-20T09:05:02.398Z,19.41
2019-05-20T09:06:02.410Z,19.36
2019-05-20T09:07:02.402Z,19.37
2019-05-20T09:08:03.879Z,19.28
2019-05-20T09:09:02.442Z,19.29
2019-05-20T09:10:02.510Z,19.25
2019-05-20T09:11:02.332Z,19.08
2019-05-20T09:12:02.322Z,19.10
2019-05-20T09:13:02.330Z,19.10
2019-05-20T09:14:02.297Z,19.11
2019-05-20T09:15:07.422Z,19.04
2019-05-20T09:16:02.317Z,19.04
2019-05-20T09:17:02.270Z,18.95
2019-05-20T09:18:02.313Z,18.98
2019-05-20T09:19:02.375Z,18.98
2019-05-20T09:20:02.280Z,18.95
2019-05-20T09:21:02.541Z,19.00
2019-05-20T09:22:02.223Z,19.04
2019-05-20T09:23:02.976Z,19.02
2019-05-20T09:24:02.185Z,19.13
2019-05-20T09:25:02.486Z,19.11
2019-05-20T09:26:07.189Z,19.18
2019-05-20T09:27:02.154Z,19.21
2019-05-20T09:28:02.479Z,19.19
2019-05-20T09:29:02.153Z,19.22
2019-05-20T09:30:02.846Z,19.23
2019-05-20T09:31:02.157Z,19.39
2019-05-20T09:32:02.099Z,19.33
2019-05-20T09:33:02.101Z,19.26
2019-05-20T09:34:02.103Z,19.22
2019-05-20T09:35:02.115Z,19.26
2019-05-20T09:36:02.123Z,19.23
2019-05-20T09:37:07.139Z,19.11
2019-05-20T09:38:17.310Z,19.10
2019-05-20T09:39:03.044Z,19.18
2019-05-20T09:40:02.010Z,19.18
2019-05-20T09:41:02.064Z,19.19
2019-05-20T09:42:02.026Z,19.16
2019-05-20T09:43:02.009Z,19.07
2019-05-20T09:44:01.982Z,19.13
2019-05-20T09:45:03.202Z,19.11
2019-05-20T09:46:07.814Z,19.11
2019-05-20T09:47:02.938Z,19.08
2019-05-20T09:48:06.963Z,19.10
2019-05-20T09:49:01.926Z,19.11
2019-05-20T09:50:01.944Z,19.02
2019-05-20T09:51:01.987Z,19.04
2019-05-20T09:52:01.881Z,18.91
2019-05-20T09:53:06.466Z,18.92
2019-05-20T09:54:02.917Z,18.87
2019-05-20T09:55:02.022Z,18.91
2019-05-20T09:56:01.831Z,19.10
2019-05-20T09:57:01.819Z,19.16
2019-05-20T09:58:01.834Z,19.08
2019-05-20T09:59:06.821Z,19.13
2019-05-20T10:00:02.255Z,19.16
2019-05-20T10:01:01.774Z,19.31
2019-05-20T10:02:01.801Z,19.22
2019-05-20T10:03:01.939Z,19.39
2019-05-20T10:04:01.741Z,19.40
2019-05-20T10:05:01.753Z,19.50
2019-05-20T10:06:01.869Z,19.54
2019-05-20T10:07:01.716Z,19.66
2019-05-20T10:08:01.761Z,19.56
2019-05-20T10:09:01.688Z,19.51
2019-05-20T10:10:06.698Z,19.66
2019-05-20T10:11:01.679Z,19.54
2019-05-20T10:12:01.660Z,19.54
2019-05-20T10:13:01.650Z,19.58
2019-05-20T10:14:01.649Z,19.63
2019-05-20T10:15:01.619Z,19.76
2019-05-20T10:16:01.621Z,19.77
2019-05-20T10:17:01.860Z,19.69
2019-05-20T10:18:01.587Z,19.71
2019-05-20T10:19:01.597Z,19.68
2019-05-20T10:20:01.565Z,19.63
2019-05-20T10:21:06.577Z,19.62
2019-05-20T10:22:01.543Z,19.58
2019-05-20T10:23:01.546Z,19.66
2019-05-20T10:24:01.910Z,19.48
2019-05-20T10:25:01.553Z,19.51
2019-05-20T10:26:01.501Z,19.36
2019-05-20T10:27:01.495Z,19.37
2019-05-20T10:28:01.488Z,19.33
2019-05-20T10:29:01.482Z,19.43
2019-05-20T10:30:01.453Z,19.39
2019-05-20T10:31:01.453Z,19.36
2019-05-20T10:32:06.454Z,19.33
2019-05-20T10:33:01.426Z,19.29
2019-05-20T10:34:01.423Z,19.32
2019-05-20T10:35:01.410Z,19.37
2019-05-20T10:36:01.388Z,19.37
2019-05-20T10:37:01.379Z,19.26
2019-05-20T10:38:01.377Z,19.23
2019-05-20T10:39:01.370Z,19.26
2019-05-20T10:40:01.345Z,19.28
2019-05-20T10:41:01.361Z,19.39
2019-05-20T10:42:01.321Z,19.31
2019-05-20T10:43:06.358Z,19.33
2019-05-20T10:44:01.311Z,19.28
2019-05-20T10:45:01.392Z,19.25
2019-05-20T10:46:01.290Z,19.26
2019-05-20T10:47:01.264Z,19.16
2019-05-20T10:48:01.256Z,19.25
2019-05-20T10:49:01.258Z,19.25
2019-05-20T10:50:01.240Z,19.19
2019-05-20T10:51:01.225Z,19.10
2019-05-20T10:52:01.211Z,19.14
2019-05-20T10:53:01.199Z,19.04
2019-05-20T10:54:06.222Z,19.04
2019-05-20T10:55:01.177Z,18.94
2019-05-20T10:56:01.823Z,18.92
2019-05-20T10:57:01.174Z,18.84
2019-05-20T10:58:01.147Z,18.81
2019-05-20T10:59:01.165Z,18.72
2019-05-20T11:00:01.131Z,18.75
2019-05-20T11:01:03.482Z,18.70
2019-05-20T11:02:01.097Z,18.78
2019-05-20T11:03:01.094Z,18.62
2019-05-20T11:04:01.076Z,18.62
2019-05-20T11:05:06.099Z,18.58
2019-05-20T11:06:01.054Z,18.42
2019-05-20T11:07:01.044Z,18.48
2019-05-20T11:08:01.031Z,18.25
2019-05-20T11:09:13.712Z,18.12
2019-05-20T11:10:02.019Z,18.11
2019-05-20T11:11:01.055Z,18.05
2019-05-20T11:12:00.989Z,17.95
2019-05-20T11:13:00.978Z,17.86
2019-05-20T11:14:00.966Z,17.79
2019-05-20T11:15:00.966Z,17.78
2019-05-20T11:16:05.992Z,17.72
2019-05-20T11:17:00.931Z,17.75
2019-05-20T11:18:00.923Z,17.72
2019-05-20T11:19:00.910Z,17.62
2019-05-20T11:20:00.909Z,17.58
2019-05-20T11:21:00.903Z,17.52
2019-05-20T11:22:00.875Z,17.54
2019-05-20T11:23:01.446Z,17.54
2019-05-20T11:24:00.856Z,17.54
2019-05-20T11:25:00.853Z,17.46
2019-05-20T11:26:00.831Z,17.44
2019-05-20T11:27:05.844Z,17.41
2019-05-20T11:28:01.252Z,17.43
2019-05-20T11:29:00.807Z,17.46
2019-05-20T11:30:00.802Z,17.52
2019-05-20T11:31:00.782Z,17.49
2019-05-20T11:32:00.765Z,17.44
2019-05-20T11:33:00.754Z,17.54
2019-05-20T11:34:00.743Z,17.52
2019-05-20T11:35:00.749Z,17.58
2019-05-20T11:36:00.725Z,17.59
2019-05-20T11:37:00.713Z,17.64
2019-05-20T11:38:05.723Z,17.71
2019-05-20T11:39:00.689Z,17.72
2019-05-20T11:40:00.698Z,17.81
2019-05-20T11:41:00.668Z,17.81
2019-05-20T11:42:00.654Z,17.82
2019-05-20T11:43:00.678Z,17.81
2019-05-20T11:44:00.636Z,17.86
2019-05-20T11:45:00.647Z,17.82
2019-05-20T11:46:00.616Z,17.81
2019-05-20T11:47:00.619Z,17.89
2019-05-20T11:48:00.594Z,17.79
2019-05-20T11:49:05.601Z,17.90
2019-05-20T11:50:00.578Z,17.89
2019-05-20T11:51:00.561Z,17.90
2019-05-20T11:52:00.547Z,17.93
2019-05-20T11:53:00.537Z,17.96
2019-05-20T11:54:00.529Z,17.99
2019-05-20T11:55:00.526Z,17.92
2019-05-20T11:56:00.503Z,17.92
2019-05-20T11:57:00.493Z,17.89
2019-05-20T11:58:14.403Z,17.95
2019-05-20T11:59:01.466Z,17.95
2019-05-20T12:00:05.492Z,17.95
2019-05-20T12:01:00.445Z,17.90
2019-05-20T12:02:03.911Z,17.92
2019-05-20T12:03:00.425Z,17.90
2019-05-20T12:04:00.422Z,17.92
2019-05-20T12:05:00.420Z,17.89
2019-05-20T12:06:00.408Z,17.87
2019-05-20T12:07:00.384Z,17.84
2019-05-20T12:08:00.377Z,17.79
2019-05-20T12:09:00.377Z,17.72
2019-05-20T12:10:00.356Z,17.70
2019-05-20T12:11:05.376Z,17.70
2019-05-20T12:12:00.326Z,17.71
2019-05-20T12:13:00.314Z,17.74
2019-05-20T12:14:00.311Z,17.75
2019-05-20T12:15:00.370Z,17.77
2019-05-20T12:16:00.291Z,17.77
2019-05-20T12:17:00.281Z,17.87
2019-05-20T12:18:00.258Z,17.87
2019-05-20T12:19:00.251Z,17.95
2019-05-20T12:20:00.272Z,17.95
2019-05-20T12:21:00.248Z,17.96
2019-05-20T12:22:05.253Z,17.96
2019-05-20T12:23:00.205Z,17.99
2019-05-20T12:24:00.198Z,18.05
2019-05-20T12:25:00.193Z,17.96
2019-05-20T12:26:00.194Z,18.08
2019-05-20T12:27:00.162Z,18.05
2019-05-20T12:28:00.156Z,18.08
2019-05-20T12:29:00.143Z,18.12
2019-05-20T12:30:00.133Z,18.10
2019-05-20T12:31:00.135Z,18.08
2019-05-20T12:32:03.478Z,18.07
2019-05-20T12:33:17.734Z,18.05
2019-05-20T12:34:01.083Z,18.11
2019-05-20T12:35:00.095Z,17.97
2019-05-20T12:36:00.072Z,17.97
2019-05-20T12:37:00.066Z,17.97
2019-05-20T12:38:00.039Z,17.97
2019-05-20T12:39:00.034Z,18.02
2019-05-20T12:40:06.971Z,18.08
2019-05-20T12:41:01.024Z,18.02
2019-05-20T12:42:00.003Z,18.07
2019-05-20T12:42:59.984Z,17.97
2019-05-20T12:44:11.750Z,17.95
2019-05-20T12:45:00.983Z,18.05
2019-05-20T12:45:59.999Z,18.07
2019-05-20T12:46:59.947Z,18.07
2019-05-20T12:47:59.978Z,18.12
2019-05-20T12:48:59.978Z,18.08
2019-05-20T12:49:59.967Z,18.14
2019-05-20T12:50:59.927Z,18.12
2019-05-20T12:51:59.895Z,18.15